Time;durP1;ratioP1;P1;durP2;ratioP2;P2;SDS_P1;SDS_P2;PMS_P1;PMS_P2;Temp;Humidity;BMP_temperature;BMP_pressure;BME280_temperature;BME280_humidity;BME280_pressure;Samples;Min_cycle;Max_cycle;Signal;HPM_P1;HPM_P2
2022/09/13 00:02:40;;;;;;;9.88;5.30;;;;;;;;;;6229864;28;20561;-68
2022/09/13 00:05:42;;;;;;;12.35;5.80;;;;;;;;;;6236525;28;20045;-68
2022/09/13 00:08:44;;;;;;;7.03;4.95;;;;;;;;;;6234118;28;20059;-68
2022/09/13 00:11:45;;;;;;;9.80;5.70;;;;;;;;;;6232318;28;20054;-68
2022/09/13 00:14:48;;;;;;;9.98;5.28;;;;;;;;;;6234170;28;20360;-68
2022/09/13 00:17:50;;;;;;;10.23;5.65;;;;;;;;;;6232195;28;20046;-69
2022/09/13 00:20:52;;;;;;;8.07;5.45;;;;;;;;;;6236132;28;20061;-65
2022/09/13 00:23:54;;;;;;;10.23;5.32;;;;;;;;;;6237882;28;20065;-66
2022/09/13 00:26:56;;;;;;;9.35;5.50;;;;;;;;;;6231842;28;20050;-66
2022/09/13 00:29:59;;;;;;;7.60;5.22;;;;;;;;;;6232811;28;20096;-66
2022/09/13 00:33:03;;;;;;;6.93;5.18;;;;;;;;;;6232631;28;20058;-65
2022/09/13 00:36:06;;;;;;;7.30;5.05;;;;;;;;;;6232638;28;20049;-66
2022/09/13 00:39:07;;;;;;;9.60;5.18;;;;;;;;;;6236580;28;20108;-64
2022/09/13 00:42:10;;;;;;;18.83;5.93;;;;;;;;;;6234738;28;20060;-65
2022/09/13 00:45:18;;;;;;;17.50;6.13;;;;;;;;;;6234035;28;20504;-64
2022/09/13 00:48:21;;;;;;;14.70;5.47;;;;;;;;;;6238803;28;20156;-65
2022/09/13 00:51:23;;;;;;;6.53;4.35;;;;;;;;;;6235341;28;20276;-64
2022/09/13 00:54:30;;;;;;;10.27;4.78;;;;;;;;;;6233593;28;20049;-65
2022/09/13 00:57:33;;;;;;;10.13;4.70;;;;;;;;;;6233767;28;20049;-66
2022/09/13 01:00:38;;;;;;;7.47;4.85;;;;;;;;;;6237440;28;20249;-66
2022/09/13 01:03:41;;;;;;;9.45;5.20;;;;;;;;;;6232497;28;21341;-64
2022/09/13 01:06:43;;;;;;;10.85;5.15;;;;;;;;;;6236988;28;20045;-64
2022/09/13 01:09:46;;;;;;;8.75;4.72;;;;;;;;;;6230869;28;20045;-64
2022/09/13 01:12:49;;;;;;;;;;;;;;;;;;6237311;28;20042;-65
2022/09/13 01:15:52;;;;;;;8.85;4.18;;;;;;;;;;6235148;28;19928;-65
2022/09/13 01:18:53;;;;;;;;;;;;;;;;;;6230583;28;20054;-66
2022/09/13 01:22:12;;;;;;;7.03;4.30;;;;;;;;;;6233488;28;19929;-65
2022/09/13 01:25:29;;;;;;;8.70;4.00;;;;;;;;;;6236601;28;20061;-68
2022/09/13 01:28:59;;;;;;;8.38;4.93;;;;;;;;;;6235229;28;20054;-65
2022/09/13 01:32:08;;;;;;;5.57;4.00;;;;;;;;;;6229135;28;20062;-68
2022/09/13 01:35:17;;;;;;;10.77;4.47;;;;;;;;;;6232701;28;20045;-65
2022/09/13 01:38:33;;;;;;;8.25;4.32;;;;;;;;;;6234627;28;20050;-67
2022/09/13 01:42:01;;;;;;;6.38;4.05;;;;;;;;;;6235194;28;20057;-65
2022/09/13 01:45:09;;;;;;;9.15;4.57;;;;;;;;;;6234393;28;20050;-66
2022/09/13 01:48:18;;;;;;;7.53;4.28;;;;;;;;;;6229664;28;20105;-65
2022/09/13 01:51:26;;;;;;;10.43;4.65;;;;;;;;;;6233415;28;20502;-64
2022/09/13 01:54:31;;;;;;;10.13;4.68;;;;;;;;;;6232431;28;20046;-65
2022/09/13 01:57:38;;;;;;;8.80;4.97;;;;;;;;;;6232753;28;20057;-65
2022/09/13 02:00:45;;;;;;;8.45;4.93;;;;;;;;;;6234126;28;20045;-65
2022/09/13 02:03:54;;;;;;;7.97;4.57;;;;;;;;;;6230359;28;20328;-65
2022/09/13 02:07:01;;;;;;;5.95;4.90;;;;;;;;;;6234264;28;20140;-64
2022/09/13 02:10:07;;;;;;;10.00;4.53;;;;;;;;;;6227436;28;20088;-65
2022/09/13 02:13:13;;;;;;;7.85;5.07;;;;;;;;;;6234716;28;20056;-65
2022/09/13 02:16:18;;;;;;;9.13;5.63;;;;;;;;;;6230359;28;20276;-64
2022/09/13 02:19:24;;;;;;;8.63;5.85;;;;;;;;;;6231664;28;20049;-65
2022/09/13 02:22:30;;;;;;;9.25;5.55;;;;;;;;;;6232697;28;20096;-64
2022/09/13 02:25:33;;;;;;;10.15;4.85;;;;;;;;;;6225772;28;20061;-65
2022/09/13 02:28:40;;;;;;;8.57;4.57;;;;;;;;;;6228758;28;20046;-66
2022/09/13 02:31:46;;;;;;;8.27;4.70;;;;;;;;;;6233307;28;20053;-66
2022/09/13 02:34:52;;;;;;;7.43;4.88;;;;;;;;;;6226360;28;20096;-65
2022/09/13 02:37:57;;;;;;;7.25;4.20;;;;;;;;;;6228586;28;20061;-65
2022/09/13 02:41:01;;;;;;;13.00;4.22;;;;;;;;;;6230109;28;20053;-65
2022/09/13 02:44:07;;;;;;;6.20;4.28;;;;;;;;;;6235271;28;20324;-67
2022/09/13 02:47:14;;;;;;;6.82;3.95;;;;;;;;;;6228070;28;20053;-65
2022/09/13 02:50:34;;;;;;;5.60;3.85;;;;;;;;;;6224492;28;20083;-66
2022/09/13 02:53:40;;;;;;;8.13;4.22;;;;;;;;;;6226771;28;20120;-65
2022/09/13 02:56:47;;;;;;;7.68;4.47;;;;;;;;;;6230828;28;20105;-65
2022/09/13 02:59:49;;;;;;;10.60;4.65;;;;;;;;;;6226264;28;20053;-66
2022/09/13 03:02:52;;;;;;;10.73;4.50;;;;;;;;;;6226581;28;20345;-65
2022/09/13 03:05:55;;;;;;;9.43;4.65;;;;;;;;;;6227588;28;20829;-65
2022/09/13 03:08:58;;;;;;;9.82;4.78;;;;;;;;;;6231356;28;20050;-66
2022/09/13 03:12:23;;;;;;;7.57;4.30;;;;;;;;;;6229443;28;20203;-65
2022/09/13 03:15:31;;;;;;;6.95;5.07;;;;;;;;;;6224724;28;20233;-66
2022/09/13 03:18:43;;;;;;;9.02;4.80;;;;;;;;;;6225743;28;20053;-65
2022/09/13 03:21:59;;;;;;;7.00;4.72;;;;;;;;;;6224273;28;20054;-65
2022/09/13 03:25:06;;;;;;;12.57;5.00;;;;;;;;;;6224834;28;20073;-65
2022/09/13 03:28:15;;;;;;;7.07;4.63;;;;;;;;;;6225134;28;20050;-66
2022/09/13 03:31:18;;;;;;;5.20;4.07;;;;;;;;;;6223915;28;20046;-68
2022/09/13 03:34:30;;;;;;;7.88;4.72;;;;;;;;;;6225811;28;20156;-65
2022/09/13 03:37:36;;;;;;;6.28;4.03;;;;;;;;;;6229811;28;20096;-66
2022/09/13 03:40:42;;;;;;;8.13;4.40;;;;;;;;;;6226892;28;20111;-65
2022/09/13 03:43:47;;;;;;;8.60;3.97;;;;;;;;;;6232903;28;20111;-65
2022/09/13 03:46:51;;;;;;;5.60;4.15;;;;;;;;;;6232607;28;20087;-65
2022/09/13 03:49:53;;;;;;;5.55;4.57;;;;;;;;;;6231259;28;20050;-66
2022/09/13 03:53:00;;;;;;;8.70;5.50;;;;;;;;;;6231807;28;20063;-67
2022/09/13 03:56:12;;;;;;;7.45;4.15;;;;;;;;;;6230059;28;20125;-69
2022/09/13 03:59:13;;;;;;;5.68;4.40;;;;;;;;;;6228909;28;20049;-65
2022/09/13 04:02:16;;;;;;;7.55;4.70;;;;;;;;;;6228488;28;20065;-66
2022/09/13 04:05:17;;;;;;;6.07;4.65;;;;;;;;;;6232571;28;20281;-65
2022/09/13 04:08:20;;;;;;;8.05;5.10;;;;;;;;;;6229897;28;20172;-65
2022/09/13 04:11:22;;;;;;;7.38;5.10;;;;;;;;;;6229870;28;20345;-66
2022/09/13 04:14:25;;;;;;;8.57;5.13;;;;;;;;;;6227769;28;20054;-65
2022/09/13 04:17:27;;;;;;;6.15;4.50;;;;;;;;;;6229253;28;20046;-65
2022/09/13 04:20:29;;;;;;;7.55;4.90;;;;;;;;;;6231260;28;20062;-65
2022/09/13 04:23:32;;;;;;;8.93;4.53;;;;;;;;;;6231320;28;20284;-66
2022/09/13 04:26:34;;;;;;;11.90;4.93;;;;;;;;;;6231432;28;20096;-65
2022/09/13 04:29:36;;;;;;;8.10;5.37;;;;;;;;;;6229243;28;21286;-66
2022/09/13 04:32:37;;;;;;;12.15;5.63;;;;;;;;;;6232156;28;20057;-66
2022/09/13 04:35:40;;;;;;;10.85;4.47;;;;;;;;;;6230216;28;20045;-68
2022/09/13 04:38:44;;;;;;;10.93;5.25;;;;;;;;;;6229308;28;20056;-66
2022/09/13 04:41:47;;;;;;;8.43;5.45;;;;;;;;;;6229669;28;20092;-66
2022/09/13 04:44:49;;;;;;;9.23;6.03;;;;;;;;;;6232878;28;20062;-67
2022/09/13 04:47:52;;;;;;;11.68;5.50;;;;;;;;;;6231283;28;20877;-65
2022/09/13 04:50:54;;;;;;;8.82;5.15;;;;;;;;;;6226307;28;20091;-66
2022/09/13 04:53:57;;;;;;;9.70;5.18;;;;;;;;;;6227243;28;20058;-65
2022/09/13 04:56:58;;;;;;;11.05;6.00;;;;;;;;;;6229151;28;20313;-65
2022/09/13 05:00:00;;;;;;;9.57;5.72;;;;;;;;;;6228934;28;20061;-65
2022/09/13 05:03:02;;;;;;;10.25;6.03;;;;;;;;;;6226966;28;20038;-66
2022/09/13 05:06:04;;;;;;;9.70;5.90;;;;;;;;;;6226915;28;20058;-65
2022/09/13 05:09:07;;;;;;;10.25;6.32;;;;;;;;;;6227588;28;20096;-66
2022/09/13 05:12:09;;;;;;;15.18;6.60;;;;;;;;;;6230570;28;20100;-66
2022/09/13 05:15:11;;;;;;;15.32;5.65;;;;;;;;;;6227943;28;20052;-63
2022/09/13 05:18:13;;;;;;;12.32;6.38;;;;;;;;;;6234364;28;20060;-64
2022/09/13 05:21:14;;;;;;;12.68;6.00;;;;;;;;;;6230111;28;20050;-68
2022/09/13 05:24:17;;;;;;;8.88;6.25;;;;;;;;;;6228275;28;20050;-67
2022/09/13 05:27:19;;;;;;;9.45;6.60;;;;;;;;;;6229456;28;20324;-64
2022/09/13 05:30:21;;;;;;;8.15;6.10;;;;;;;;;;6230669;28;20053;-65
2022/09/13 05:33:22;;;;;;;9.35;6.07;;;;;;;;;;6229328;28;20112;-65
2022/09/13 05:36:25;;;;;;;10.48;6.47;;;;;;;;;;6234887;28;20053;-67
2022/09/13 05:39:28;;;;;;;14.88;6.60;;;;;;;;;;6232949;28;20041;-67
2022/09/13 05:42:29;;;;;;;11.48;6.32;;;;;;;;;;6231793;28;20045;-66
2022/09/13 05:45:31;;;;;;;13.07;6.78;;;;;;;;;;6233074;28;20323;-66
2022/09/13 05:48:34;;;;;;;11.50;6.78;;;;;;;;;;6228584;28;20065;-67
2022/09/13 05:51:36;;;;;;;11.63;7.05;;;;;;;;;;6232330;28;20064;-66
2022/09/13 05:54:39;;;;;;;8.68;6.07;;;;;;;;;;6228420;28;20057;-66
2022/09/13 05:57:41;;;;;;;9.80;6.53;;;;;;;;;;6232176;28;20095;-66
2022/09/13 06:00:42;;;;;;;10.02;6.38;;;;;;;;;;6229299;28;20058;-67
2022/09/13 06:03:47;;;;;;;12.55;6.65;;;;;;;;;;6228983;28;20054;-68
2022/09/13 06:06:48;;;;;;;12.98;6.57;;;;;;;;;;6226179;28;20049;-66
2022/09/13 06:09:52;;;;;;;13.40;6.55;;;;;;;;;;6226460;28;20049;-66
2022/09/13 06:12:53;;;;;;;;;;;;;;;;;;6227135;28;20229;-67
2022/09/13 06:15:56;;;;;;;11.77;6.20;;;;;;;;;;6226540;28;19917;-67
2022/09/13 06:18:58;;;;;;;11.98;6.72;;;;;;;;;;6224111;28;20056;-67
2022/09/13 06:21:59;;;;;;;11.80;6.57;;;;;;;;;;6227760;28;20046;-65
2022/09/13 06:25:04;;;;;;;13.93;6.93;;;;;;;;;;6221896;28;20077;-67
2022/09/13 06:28:05;;;;;;;11.75;7.13;;;;;;;;;;6228764;28;20096;-68
2022/09/13 06:31:09;;;;;;;12.13;7.22;;;;;;;;;;6226611;28;20049;-69
2022/09/13 06:34:12;;;;;;;19.63;7.43;;;;;;;;;;6226991;28;20218;-69
2022/09/13 06:37:14;;;;;;;11.43;7.13;;;;;;;;;;6225596;28;20049;-65
2022/09/13 06:40:17;;;;;;;12.05;7.65;;;;;;;;;;6224597;28;20053;-66
2022/09/13 06:43:19;;;;;;;13.52;7.50;;;;;;;;;;6231335;28;20041;-68
2022/09/13 06:46:21;;;;;;;15.80;7.25;;;;;;;;;;6229297;28;20797;-68
2022/09/13 06:49:23;;;;;;;11.50;7.32;;;;;;;;;;6229540;28;20053;-68
2022/09/13 06:52:25;;;;;;;9.32;6.50;;;;;;;;;;6229581;28;20337;-65
2022/09/13 06:55:28;;;;;;;11.85;6.85;;;;;;;;;;6228233;28;20089;-68
2022/09/13 06:58:30;;;;;;;12.57;6.32;;;;;;;;;;6228043;28;20057;-68
2022/09/13 07:01:33;;;;;;;10.57;6.53;;;;;;;;;;6226008;28;20054;-67
2022/09/13 07:04:34;;;;;;;10.60;6.32;;;;;;;;;;6227515;28;20488;-68
2022/09/13 07:07:36;;;;;;;10.15;5.65;;;;;;;;;;6229238;28;20061;-65
2022/09/13 07:10:39;;;;;;;9.68;6.13;;;;;;;;;;6225183;28;20053;-67
2022/09/13 07:13:40;;;;;;;;;;;;;;;;;;6227794;28;20573;-68
2022/09/13 07:16:42;;;;;;;7.60;6.40;;;;;;;;;;6226774;28;19926;-66
2022/09/13 07:19:44;;;;;;;10.13;6.50;;;;;;;;;;6233588;28;20116;-68
2022/09/13 07:22:45;;;;;;;11.45;6.93;;;;;;;;;;6231940;28;20060;-68
2022/09/13 07:26:00;;;;;;;12.15;6.05;;;;;;;;;;6231119;28;20133;-68
2022/09/13 07:29:04;;;;;;;7.45;5.95;;;;;;;;;;6229957;28;20038;-67
2022/09/13 07:32:06;;;;;;;7.47;6.03;;;;;;;;;;6233759;28;20351;-68
2022/09/13 07:35:08;;;;;;;8.77;5.40;;;;;;;;;;6231934;28;20345;-66
2022/09/13 07:38:09;;;;;;;7.95;5.53;;;;;;;;;;6231715;28;20149;-65
2022/09/13 07:41:15;;;;;;;8.05;5.35;;;;;;;;;;6236294;28;20229;-67
2022/09/13 07:44:16;;;;;;;7.70;4.70;;;;;;;;;;6231600;28;20058;-66
2022/09/13 07:47:18;;;;;;;7.20;4.10;;;;;;;;;;6233378;28;20233;-66
2022/09/13 07:50:20;;;;;;;7.05;4.40;;;;;;;;;;6232855;28;20057;-66
2022/09/13 07:53:22;;;;;;;5.95;3.97;;;;;;;;;;6234193;28;20049;-66
2022/09/13 07:56:26;;;;;;;7.55;4.05;;;;;;;;;;6233036;28;20217;-66
2022/09/13 07:59:27;;;;;;;6.07;5.20;;;;;;;;;;6232555;28;20111;-66
2022/09/13 08:02:30;;;;;;;9.80;4.45;;;;;;;;;;6233240;28;20056;-66
2022/09/13 08:05:32;;;;;;;8.77;4.00;;;;;;;;;;6233339;28;20127;-67
2022/09/13 08:08:34;;;;;;;9.43;3.47;;;;;;;;;;6232535;28;20883;-66
2022/09/13 08:11:39;;;;;;;3.80;2.97;;;;;;;;;;6231658;28;20054;-67
2022/09/13 08:14:40;;;;;;;8.07;3.92;;;;;;;;;;6232160;28;20042;-68
2022/09/13 08:17:42;;;;;;;5.80;4.30;;;;;;;;;;6233728;28;20096;-66
2022/09/13 08:20:44;;;;;;;6.28;3.95;;;;;;;;;;6230583;28;20045;-67
2022/09/13 08:23:45;;;;;;;7.77;4.13;;;;;;;;;;6230912;28;20057;-71
2022/09/13 08:26:50;;;;;;;5.93;3.63;;;;;;;;;;6231354;28;20261;-66
2022/09/13 08:29:52;;;;;;;5.70;3.50;;;;;;;;;;6232474;28;20052;-66
2022/09/13 08:32:54;;;;;;;6.55;3.95;;;;;;;;;;6232791;28;20083;-66
2022/09/13 08:35:57;;;;;;;7.20;4.15;;;;;;;;;;6231003;28;20050;-68
2022/09/13 08:38:59;;;;;;;6.22;3.55;;;;;;;;;;6230456;28;20056;-67
2022/09/13 08:42:14;;;;;;;4.80;3.10;;;;;;;;;;6231056;28;20046;-68
2022/09/13 08:45:16;;;;;;;4.15;2.92;;;;;;;;;;6232904;28;20046;-67
2022/09/13 08:48:20;;;;;;;5.63;3.42;;;;;;;;;;6230307;28;20062;-68
2022/09/13 08:51:28;;;;;;;8.70;4.10;;;;;;;;;;6228550;28;20096;-70
2022/09/13 08:54:30;;;;;;;9.07;5.78;;;;;;;;;;6226861;28;20065;-68
2022/09/13 08:57:38;;;;;;;6.63;4.27;;;;;;;;;;6229049;28;20284;-68
2022/09/13 09:00:41;;;;;;;8.60;4.72;;;;;;;;;;6230987;28;20132;-68
2022/09/13 09:03:51;;;;;;;7.18;4.80;;;;;;;;;;6228558;28;20341;-70
2022/09/13 09:06:56;;;;;;;7.78;3.88;;;;;;;;;;6231108;28;20224;-69
2022/09/13 09:10:03;;;;;;;7.90;4.80;;;;;;;;;;6232160;28;20232;-68
2022/09/13 09:13:08;;;;;;;6.85;5.18;;;;;;;;;;6231595;28;20347;-68
2022/09/13 09:16:20;;;;;;;9.57;5.07;;;;;;;;;;6228896;28;20188;-68
2022/09/13 09:19:26;;;;;;;9.32;5.03;;;;;;;;;;6231261;28;20061;-68
2022/09/13 09:22:33;;;;;;;8.20;5.65;;;;;;;;;;6230359;28;20046;-69
2022/09/13 09:25:34;;;;;;;8.65;5.07;;;;;;;;;;6230747;28;20355;-69
2022/09/13 09:28:37;;;;;;;6.55;4.18;;;;;;;;;;6231334;28;20233;-68
2022/09/13 09:31:45;;;;;;;7.47;5.25;;;;;;;;;;6230619;28;20054;-68
2022/09/13 09:34:54;;;;;;;10.93;6.97;;;;;;;;;;6228942;28;20091;-68
2022/09/13 09:38:16;;;;;;;11.35;6.18;;;;;;;;;;6230918;28;20058;-68
2022/09/13 09:41:26;;;;;;;10.13;6.17;;;;;;;;;;6230294;28;20057;-68
2022/09/13 09:44:32;;;;;;;10.55;6.13;;;;;;;;;;6230241;28;20489;-68
2022/09/13 09:47:45;;;;;;;6.88;5.18;;;;;;;;;;6229217;28;20053;-68
2022/09/13 09:50:50;;;;;;;9.73;5.88;;;;;;;;;;6235446;28;20100;-68
2022/09/13 09:53:54;;;;;;;8.20;6.40;;;;;;;;;;6240789;28;20049;-66
2022/09/13 09:56:56;;;;;;;11.25;5.75;;;;;;;;;;6240354;28;20329;-68
2022/09/13 10:00:11;;;;;;;12.50;8.90;;;;;;;;;;6237515;28;20103;-68
2022/09/13 10:03:18;;;;;;;12.10;6.55;;;;;;;;;;6231489;28;20060;-69
2022/09/13 10:06:21;;;;;;;12.07;9.20;;;;;;;;;;6223886;28;20054;-68
2022/09/13 10:09:23;;;;;;;11.52;9.80;;;;;;;;;;6230374;28;20050;-68
2022/09/13 10:12:32;;;;;;;16.50;8.88;;;;;;;;;;6228753;28;20046;-68
2022/09/13 10:15:35;;;;;;;8.98;7.25;;;;;;;;;;6227107;28;20390;-68
2022/09/13 10:18:37;;;;;;;6.93;4.68;;;;;;;;;;6229485;28;20065;-68
2022/09/13 10:21:39;;;;;;;;;;;;;;;;;;6231021;28;20065;-68
2022/09/13 10:24:40;;;;;;;8.02;6.03;;;;;;;;;;6230447;28;20089;-69
2022/09/13 10:27:48;;;;;;;8.32;7.38;;;;;;;;;;6227548;28;20065;-65
2022/09/13 10:30:54;;;;;;;7.60;6.32;;;;;;;;;;6224977;28;20052;-64
2022/09/13 10:33:58;;;;;;;10.15;7.63;;;;;;;;;;6224779;28;20061;-67
2022/09/13 10:37:03;;;;;;;8.45;6.63;;;;;;;;;;6229680;28;20057;-67
2022/09/13 10:40:11;;;;;;;8.73;5.93;;;;;;;;;;6228389;28;20061;-66
2022/09/13 10:43:18;;;;;;;9.45;5.13;;;;;;;;;;6227088;28;20127;-65
2022/09/13 10:46:24;;;;;;;24.55;21.02;;;;;;;;;;6228721;28;20322;-65
2022/09/13 10:49:53;;;;;;;19.67;15.23;;;;;;;;;;6226150;28;20375;-66
2022/09/13 10:52:56;;;;;;;13.48;12.13;;;;;;;;;;6155731;28;20054;-65
2022/09/13 10:55:57;;;;;;;11.68;9.63;;;;;;;;;;6155339;28;20218;-66
2022/09/13 10:59:15;;;;;;;10.50;6.32;;;;;;;;;;6154353;28;20210;-66
2022/09/13 11:02:35;;;;;;;11.00;6.95;;;;;;;;;;6159770;28;20047;-65
2022/09/13 11:05:41;;;;;;;9.38;6.13;;;;;;;;;;6155256;28;20953;-66
2022/09/13 11:08:48;;;;;;;8.35;6.70;;;;;;;;;;6155399;28;20154;-64
2022/09/13 11:11:57;;;;;;;9.43;5.57;;;;;;;;;;6158740;28;20326;-66
2022/09/13 11:15:08;;;;;;;7.93;5.30;;;;;;;;;;6163606;28;20310;-66
2022/09/13 11:18:31;;;;;;;9.57;6.38;;;;;;;;;;6160220;28;20046;-66
2022/09/13 11:21:43;;;;;;;14.30;5.60;;;;;;;;;;6159935;28;20059;-65
2022/09/13 11:24:54;;;;;;;9.80;5.93;;;;;;;;;;6156383;28;20055;-68
2022/09/13 11:28:02;;;;;;;278.02;251.30;;;;;;;;;;6184925;28;20240;-66
2022/09/13 11:31:16;;;;;;;42.25;36.00;;;;;;;;;;6240202;28;20041;-65
2022/09/13 11:34:32;;;;;;;12.60;8.75;;;;;;;;;;6231932;28;20080;-67
2022/09/13 11:37:41;;;;;;;16.90;10.93;;;;;;;;;;6230998;28;20045;-67
2022/09/13 11:40:49;;;;;;;39.85;29.10;;;;;;;;;;6236415;28;20050;-65
2022/09/13 11:44:00;;;;;;;12.85;9.23;;;;;;;;;;6239350;28;20045;-66
2022/09/13 11:47:08;;;;;;;12.35;7.88;;;;;;;;;;6236512;28;20053;-65
2022/09/13 11:50:26;;;;;;;7.28;5.32;;;;;;;;;;6239285;28;20053;-66
2022/09/13 11:53:43;;;;;;;9.85;7.13;;;;;;;;;;6236337;28;20053;-67
2022/09/13 11:56:48;;;;;;;8.55;3.60;;;;;;;;;;6234185;28;20384;-66
2022/09/13 11:59:53;;;;;;;7.70;3.75;;;;;;;;;;6234593;28;20037;-66
2022/09/13 12:03:01;;;;;;;6.60;3.08;;;;;;;;;;6236028;28;20111;-66
2022/09/13 12:06:08;;;;;;;9.07;3.50;;;;;;;;;;6239137;28;20053;-66
2022/09/13 12:09:13;;;;;;;5.97;3.17;;;;;;;;;;6237240;28;20056;-67
2022/09/13 12:12:15;;;;;;;14.73;2.97;;;;;;;;;;6236949;28;20334;-67
2022/09/13 12:15:21;;;;;;;4.85;2.63;;;;;;;;;;6238743;28;20053;-69
2022/09/13 12:18:26;;;;;;;7.53;2.60;;;;;;;;;;6232118;28;20061;-68
2022/09/13 12:21:32;;;;;;;5.60;2.55;;;;;;;;;;6242797;28;20218;-68
2022/09/13 12:24:39;;;;;;;7.05;2.70;;;;;;;;;;6238691;28;20049;-68
2022/09/13 12:27:43;;;;;;;5.30;2.58;;;;;;;;;;6242045;28;20096;-67
2022/09/13 12:30:50;;;;;;;4.70;2.42;;;;;;;;;;6236574;28;20095;-67
2022/09/13 12:33:54;;;;;;;5.28;2.58;;;;;;;;;;6235135;28;20104;-67
2022/09/13 12:37:13;;;;;;;14.57;3.90;;;;;;;;;;6235994;28;20116;-67
2022/09/13 12:40:34;;;;;;;6.40;2.53;;;;;;;;;;6237195;28;20084;-67
2022/09/13 12:43:55;;;;;;;6.60;2.80;;;;;;;;;;6234725;28;20682;-66
2022/09/13 12:47:20;;;;;;;5.60;2.47;;;;;;;;;;6241205;28;20049;-67
2022/09/13 12:50:51;;;;;;;4.05;2.40;;;;;;;;;;6239015;28;20050;-66
2022/09/13 12:54:31;;;;;;;4.40;2.38;;;;;;;;;;6241413;28;20046;-66
2022/09/13 12:57:40;;;;;;;4.53;2.30;;;;;;;;;;6163854;28;20297;-65
2022/09/13 13:00:46;;;;;;;4.22;2.30;;;;;;;;;;6162545;28;20055;-66
2022/09/13 13:03:51;;;;;;;5.13;2.30;;;;;;;;;;6166768;28;20055;-66
2022/09/13 13:06:55;;;;;;;4.75;2.10;;;;;;;;;;6162110;28;20110;-69
2022/09/13 13:09:58;;;;;;;5.22;2.70;;;;;;;;;;6160290;28;20054;-69
2022/09/13 13:13:11;;;;;;;12.63;4.93;;;;;;;;;;6156530;28;20058;-67
2022/09/13 13:16:31;;;;;;;4.78;2.15;;;;;;;;;;6154602;28;20059;-68
2022/09/13 13:19:35;;;;;;;7.15;2.50;;;;;;;;;;6159680;28;20303;-68
2022/09/13 13:22:51;;;;;;;5.80;2.13;;;;;;;;;;6164102;28;20047;-67
2022/09/13 13:26:00;;;;;;;3.75;2.05;;;;;;;;;;6161949;28;20059;-65
2022/09/13 13:29:14;;;;;;;7.10;2.00;;;;;;;;;;6161255;28;20338;-67
2022/09/13 13:32:16;;;;;;;6.85;2.15;;;;;;;;;;6182345;28;20280;-68
2022/09/13 13:35:29;;;;;;;5.63;1.90;;;;;;;;;;6233632;28;20046;-67
2022/09/13 13:38:41;;;;;;;5.07;2.00;;;;;;;;;;6238201;28;20046;-67
2022/09/13 13:41:55;;;;;;;3.78;2.05;;;;;;;;;;6238681;28;20065;-67
2022/09/13 13:45:22;;;;;;;3.88;1.90;;;;;;;;;;6236537;28;20060;-67
2022/09/13 13:48:37;;;;;;;6.82;2.10;;;;;;;;;;6222937;28;20225;-67
2022/09/13 13:51:39;;;;;;;8.30;2.30;;;;;;;;;;6236520;28;20375;-67
2022/09/13 13:54:58;;;;;;;2.15;1.80;;;;;;;;;;6237409;28;20061;-67
2022/09/13 13:58:04;;;;;;;7.03;2.17;;;;;;;;;;6236986;28;20050;-67
2022/09/13 14:01:06;;;;;;;5.43;2.10;;;;;;;;;;6236158;28;20046;-67
2022/09/13 14:04:45;;;;;;;7.32;2.13;;;;;;;;;;6239314;28;20107;-68
2022/09/13 14:08:02;;;;;;;4.03;2.05;;;;;;;;;;6240160;28;20084;-67
2022/09/13 14:11:14;;;;;;;3.42;2.33;;;;;;;;;;6237180;28;20050;-68
2022/09/13 14:14:32;;;;;;;9.23;2.53;;;;;;;;;;6239145;28;20108;-67
2022/09/13 14:17:59;;;;;;;4.82;2.13;;;;;;;;;;6240504;28;20111;-67
2022/09/13 14:21:02;;;;;;;5.10;2.38;;;;;;;;;;6234115;28;20112;-67
2022/09/13 14:24:17;;;;;;;7.15;2.50;;;;;;;;;;6239372;28;20195;-67
2022/09/13 14:27:21;;;;;;;6.75;2.50;;;;;;;;;;6235002;28;20048;-67
2022/09/13 14:30:27;;;;;;;7.88;2.35;;;;;;;;;;6234705;28;20072;-67
2022/09/13 14:33:33;;;;;;;7.90;2.60;;;;;;;;;;6233650;28;20129;-67
2022/09/13 14:36:36;;;;;;;7.25;2.85;;;;;;;;;;6231331;28;20060;-67
2022/09/13 14:39:38;;;;;;;8.20;2.60;;;;;;;;;;6232732;28;20100;-67
2022/09/13 14:42:41;;;;;;;4.40;2.73;;;;;;;;;;6233049;28;20118;-67
2022/09/13 14:45:46;;;;;;;7.65;2.63;;;;;;;;;;6234329;28;20065;-67
2022/09/13 14:48:50;;;;;;;16.23;8.13;;;;;;;;;;6231854;28;20054;-68
2022/09/13 14:51:55;;;;;;;9.35;3.17;;;;;;;;;;6234490;28;20111;-67
2022/09/13 14:55:02;;;;;;;22.38;13.55;;;;;;;;;;6230712;28;20072;-67
2022/09/13 14:58:07;;;;;;;5.88;2.60;;;;;;;;;;6231968;28;20086;-67
2022/09/13 15:01:13;;;;;;;5.63;2.53;;;;;;;;;;6233135;28;20054;-67
2022/09/13 15:04:17;;;;;;;6.90;2.67;;;;;;;;;;6236342;28;20069;-67
2022/09/13 15:07:28;;;;;;;3.88;2.40;;;;;;;;;;6236973;28;20057;-67
2022/09/13 15:10:32;;;;;;;8.32;2.50;;;;;;;;;;6233692;28;20261;-67
2022/09/13 15:13:36;;;;;;;6.90;2.50;;;;;;;;;;6234589;28;20233;-67
2022/09/13 15:16:48;;;;;;;2.75;2.20;;;;;;;;;;6232479;28;20140;-68
2022/09/13 15:19:52;;;;;;;3.42;2.10;;;;;;;;;;6226253;28;20140;-67
2022/09/13 15:22:53;;;;;;;3.65;1.80;;;;;;;;;;6226670;28;20055;-67
2022/09/13 15:25:57;;;;;;;5.93;2.30;;;;;;;;;;6224384;28;20253;-67
2022/09/13 15:29:03;;;;;;;16.02;2.72;;;;;;;;;;6225480;28;20058;-67
2022/09/13 15:32:06;;;;;;;9.23;2.15;;;;;;;;;;6224442;28;20057;-67
2022/09/13 15:35:17;;;;;;;8.90;1.80;;;;;;;;;;6226998;28;20124;-66
2022/09/13 15:38:24;;;;;;;8.32;2.20;;;;;;;;;;6226355;28;20072;-67
2022/09/13 15:41:30;;;;;;;3.25;1.75;;;;;;;;;;6232614;28;20103;-67
2022/09/13 15:44:31;;;;;;;7.70;2.20;;;;;;;;;;6232971;28;20230;-66
2022/09/13 15:47:35;;;;;;;8.33;2.27;;;;;;;;;;6230129;28;20081;-67
2022/09/13 15:50:37;;;;;;;7.25;2.15;;;;;;;;;;6232524;28;20080;-67
2022/09/13 15:53:39;;;;;;;;;;;;;;;;;;6233980;28;20108;-67
2022/09/13 15:56:42;;;;;;;4.60;1.67;;;;;;;;;;6229365;28;20359;-67
2022/09/13 15:59:44;;;;;;;4.47;2.13;;;;;;;;;;6231425;28;20108;-66
2022/09/13 16:02:47;;;;;;;4.07;1.90;;;;;;;;;;6231826;28;20104;-67
2022/09/13 16:05:49;;;;;;;4.78;1.98;;;;;;;;;;6231606;28;20077;-67
2022/09/13 16:08:50;;;;;;;20.65;2.42;;;;;;;;;;6230082;28;20058;-67
2022/09/13 16:11:52;;;;;;;25.00;3.33;;;;;;;;;;6230873;28;20072;-67
2022/09/13 16:14:54;;;;;;;16.20;3.17;;;;;;;;;;6231471;28;20046;-67
2022/09/13 16:17:57;;;;;;;4.47;2.20;;;;;;;;;;6232120;28;20060;-67
2022/09/13 16:20:59;;;;;;;10.55;2.58;;;;;;;;;;6230244;28;20037;-67
2022/09/13 16:24:00;;;;;;;13.37;2.53;;;;;;;;;;6230754;28;20181;-67
2022/09/13 16:27:02;;;;;;;14.52;2.20;;;;;;;;;;6232111;28;20054;-67
2022/09/13 16:30:04;;;;;;;5.70;2.08;;;;;;;;;;6231861;28;20065;-67
2022/09/13 16:33:07;;;;;;;8.23;2.05;;;;;;;;;;6232852;28;20236;-67
2022/09/13 16:36:11;;;;;;;13.40;2.88;;;;;;;;;;6229704;28;20220;-67
2022/09/13 16:39:13;;;;;;;7.32;1.95;;;;;;;;;;6230275;28;20112;-67
2022/09/13 16:42:16;;;;;;;4.65;1.88;;;;;;;;;;6233316;28;20053;-68
2022/09/13 16:45:17;;;;;;;;;;;;;;;;;;6238301;28;20046;-67
2022/09/13 16:48:21;;;;;;;3.50;2.15;;;;;;;;;;6238032;28;19956;-67
2022/09/13 16:51:23;;;;;;;4.97;1.90;;;;;;;;;;6238248;28;20132;-66
2022/09/13 16:54:25;;;;;;;6.05;2.10;;;;;;;;;;6236887;28;20091;-67
2022/09/13 16:57:27;;;;;;;4.75;2.22;;;;;;;;;;6232492;28;20360;-66
2022/09/13 17:00:29;;;;;;;4.65;2.00;;;;;;;;;;6233352;28;20064;-67
2022/09/13 17:03:33;;;;;;;4.57;2.13;;;;;;;;;;6230544;28;20054;-66
2022/09/13 17:06:35;;;;;;;9.30;2.13;;;;;;;;;;6231051;28;20363;-67
2022/09/13 17:09:36;;;;;;;8.45;2.88;;;;;;;;;;6230394;28;20088;-66
2022/09/13 17:12:38;;;;;;;8.00;2.77;;;;;;;;;;6229255;28;20066;-67
2022/09/13 17:15:40;;;;;;;7.83;2.33;;;;;;;;;;6232182;28;20049;-67
2022/09/13 17:18:43;;;;;;;5.47;2.10;;;;;;;;;;6232471;28;21213;-66
2022/09/13 17:21:45;;;;;;;6.32;2.10;;;;;;;;;;6227149;28;20060;-67
2022/09/13 17:24:47;;;;;;;4.45;1.92;;;;;;;;;;6224980;28;20046;-68
2022/09/13 17:27:49;;;;;;;11.27;2.42;;;;;;;;;;6226739;28;20125;-66
2022/09/13 17:30:50;;;;;;;10.40;2.13;;;;;;;;;;6223474;28;20084;-66
2022/09/13 17:33:53;;;;;;;9.30;2.55;;;;;;;;;;6224236;28;20092;-68
2022/09/13 17:36:55;;;;;;;6.75;2.22;;;;;;;;;;6224276;28;20054;-67
2022/09/13 17:39:57;;;;;;;8.93;2.30;;;;;;;;;;6225149;28;20485;-66
2022/09/13 17:42:59;;;;;;;5.47;2.25;;;;;;;;;;6224008;28;20054;-66
2022/09/13 17:46:04;;;;;;;7.85;2.20;;;;;;;;;;6224535;28;20112;-66
2022/09/13 17:49:07;;;;;;;8.63;2.85;;;;;;;;;;6226443;28;20050;-67
2022/09/13 17:52:09;;;;;;;3.45;2.25;;;;;;;;;;6230224;28;20412;-68
2022/09/13 17:55:11;;;;;;;5.28;2.55;;;;;;;;;;6251531;28;20091;-67
2022/09/13 17:58:13;;;;;;;6.18;2.45;;;;;;;;;;6225968;28;20154;-68
2022/09/13 18:01:15;;;;;;;6.22;2.75;;;;;;;;;;6226561;28;20292;-67
2022/09/13 18:04:20;;;;;;;3.63;2.40;;;;;;;;;;6225818;28;20050;-68
2022/09/13 18:07:21;;;;;;;8.25;2.42;;;;;;;;;;6230033;28;20050;-65
2022/09/13 18:10:24;;;;;;;6.80;2.58;;;;;;;;;;6227718;28;20053;-66
2022/09/13 18:13:25;;;;;;;5.78;2.78;;;;;;;;;;6230872;28;20225;-67
2022/09/13 18:16:28;;;;;;;5.35;2.83;;;;;;;;;;6231148;28;20053;-67
2022/09/13 18:19:31;;;;;;;3.67;2.30;;;;;;;;;;6232523;28;20103;-66
2022/09/13 18:22:33;;;;;;;5.43;2.60;;;;;;;;;;6232981;28;20061;-65
2022/09/13 18:25:34;;;;;;;6.63;2.50;;;;;;;;;;6234486;28;20302;-67
2022/09/13 18:28:36;;;;;;;4.50;2.70;;;;;;;;;;6231487;28;20100;-66
2022/09/13 18:31:39;;;;;;;4.28;2.65;;;;;;;;;;6228575;28;20053;-67